Fairfield, Illinois
Current Conditions -  °F | °C
As of 6:15 PM on Saturday 25 Oct 2014 (Local Time) from KFWC Reporting Station
Clear Clear  
Wind Chill: 66°   Ceiling: Unl
Heat Index: 66°   Visibility: 10mi
Dew Point: 54°   Wind: 0mph
Humidity: 65%   Direction: NA
Pressure: 29.99"   Gusts: NA
Location:  38.38°N, 88.36°W
Report Text: KFWC 252315Z AUTO 00000KT 10SM CLR 19/12 A2999 RMK AO1 T01900123
Loading
Personal Weather Stations






























Interactive Weather Map
Tropical Storm Tracking
New forecast layout! Learn more

10-Day Weather Forecast

Advertisements
Track Severe Weather on mobile